Towson, MD

12:33 PM EDT on May 28, 2015 (GMT -0400)
Martin State | | Change Station
CLOSE
Current Station
Airport
Location: Baltimore Martin,
Elevation: 23 ft
Nearby Weather Stations

Elev 23 ft 39.32 °N, 76.41 °W | Updated 48 minutes ago

Partly Cloudy
Partly Cloudy
81 °F
Feels Like 85 °F
N
12
Wind Variable Wind from SE

Today
High -- | Low -- °F
--% Chance of Precip.
Yesterday
High -- | Low -- °F
Precip. -- in
5:43 AM 8:24 PM
Waxing Gibbous, 77% visible
Pressure 30.19 in
Visibility 10.0 miles
Clouds Few 6000 ft
Scattered Clouds 8000 ft
Mostly Cloudy 20000 ft
Heat Index 85 °F
Dew Point 73 °F
Humidity 79%
Rainfall 0.00 in
Snow Depth Not available.
UV 6 out of 12
Pollen 7.00 out of 12
Air Quality Not available.
Flu Activity Sporadic
METAR KMTN 281545Z 13010KT 10SM FEW060 SCT080 BKN200 27/23 A3019

More Conditions Fewer Conditions

Pressure 30.19 in
Visibility 10.0 miles
Clouds Few 6000 ft
Scattered Clouds 8000 ft
Mostly Cloudy 20000 ft
Heat Index 85 °F
Dew Point 73 °F
Humidity 79%
Rainfall 0.00 in
Snow Depth Not available.
UV 6 out of 12
Pollen 7.00 out of 12
Air Quality Not available.
Flu Activity Sporadic
METAR KMTN 281545Z 13010KT 10SM FEW060 SCT080 BKN200 27/23 A3019

More Conditions Fewer Conditions

10-Day Weather Forecast

Almanac

Astronomy

May. 28, 2015 Rise Set
Actual Time
Civil Twilight
Nautical Twilight
Astronomical Twilight
Moon
Length of Visible Light
Length of Day
Tomorrow will be .
, % of the Moon is Illuminated

Today's Extremes

State Highs State Lows

Community

WunderPhotos

Upload Photos

1,825,003 photos uploaded!

WunderBlogs® & News

Nearby

Air Quality

  Air Quality AQ Index Pollutant
Not available.

Snow Depth

Station Depth Elevation

Earthquake Activity

City Distance Mag. Time & Date
Minimum magnitude displayed is 2.5.

Coastal Water Temperatures

Place Temperature

Stations

Nearby Weather Stations

Station Location Temp. Windchill Dew Point Humidity Wind Precip. Elev Updated Type